首页
METAR-TAF:

METAR-TAF

机场 :

布鲁塞尔南部-沙勒罗瓦机场

沙勒罗瓦, 比利时

纬度: 50-28N, 经度: 004-27E, 海拔: 187米

当前天气观测

该预报发布于41分钟前的06:20 UTC
风速2节,风向多变
温度 1°C
湿度 86%
气压 1011 hPa
能見度: 6000

METAR: EBCI 170620Z VRB02KT 6000 NSC 01/M01 Q1011 NOSIG

时间: 08:01 (07:01 UTC)

预报

该预报发布于1小时和48分钟前的05:13 UTC
预报有效从17日的 06点(UTC)到 18日的 12点(UTC)
风速5节,风向东北
能见度10公里或以上
少量云层高于3500英尺
几率 40% :
短暂存在
从 17日的 06点(UTC)到 17日的 10点(UTC)
能見度: 4000
轻雾
几率 30% :
短暂存在
从 17日的 06点(UTC)到 17日的 08点(UTC)
能見度: 0600
多云层高于100英尺
冻雾
短暂存在
从 17日的 21点(UTC)到 18日的 12点(UTC)
能見度: 3500
多云层高于500英尺
雨, 雨, 毛毛雨
成为
从 17日的 23点(UTC)到 18日的 01点(UTC)
风速10节,风向北转西北

TAF: EBCI 170513Z 1706/1812 04005KT 9999 FEW035 PROB40 TEMPO 1706/1710 4000 BR PROB30 TEMPO 1706/1708 0600 FZFG BKN001 TEMPO 1721/1812 3500 RA RADZ BKN005 BECMG 1723/1801 33010KT

超过4000个机场的气象观测和天气预报(METAR&TAF报告)。

可查询的气象台以黄色和红色小点在地图上表示。

将鼠标移到小点上方,可查看气象台名称。

然后点击查看天气观测和预报。

如需切换地图:点击带黑十字的绿色按钮放大地图;点击带横线的绿色按钮缩小地图;或者点击绿色箭头查看邻近地区的地图。


METAR-TAF: